JBE307U ZJHK-ZJSY
Flight info
| Callsign | JBE307U |
|---|---|
| Flight time | 1h 17m |
| Altitude | 7900 |
| Route | YLW LGG LG HT GPL SQG SYX |
| Aircraft | A109/L-SBDFGRY/S |
Departure
| Time | 2026-04-21 13:01 |
|---|---|
| Airport | Haikou Meilan International Airport (ZJHK) |
Arrival
| Time | 2026-04-21 14:18 |
|---|---|
| Airport | Sanya Phoenix International Airport (ZJSY) |
| Time | Latitude | Longitude | Altitude | Speed | Heading |
|---|---|---|---|---|---|
| 2026-04-21 12:36 | 19.94790 | 110.45180 | 78 ft | 0 kts | 225° |
| 2026-04-21 12:55 | 19.94800 | 110.45191 | 78 ft | 3 kts | 44° |
| 2026-04-21 12:55 | 19.94822 | 110.45216 | 78 ft | 5 kts | 40° |
| 2026-04-21 12:55 | 19.94862 | 110.45207 | 78 ft | 8 kts | 313° |
| 2026-04-21 12:55 | 19.94873 | 110.45194 | 78 ft | 0 kts | 312° |
| 2026-04-21 12:56 | 19.94874 | 110.45193 | 78 ft | 1 kts | 311° |
| 2026-04-21 12:56 | 19.94890 | 110.45174 | 78 ft | 5 kts | 313° |
| 2026-04-21 12:56 | 19.94903 | 110.45132 | 78 ft | 6 kts | 269° |
| 2026-04-21 12:56 | 19.94904 | 110.45080 | 78 ft | 7 kts | 269° |
| 2026-04-21 12:57 | 19.94923 | 110.45027 | 78 ft | 8 kts | 310° |
| 2026-04-21 12:57 | 19.94963 | 110.44977 | 78 ft | 9 kts | 309° |
| 2026-04-21 12:57 | 19.95006 | 110.44923 | 78 ft | 9 kts | 310° |
| 2026-04-21 12:57 | 19.95052 | 110.44867 | 78 ft | 10 kts | 310° |
| 2026-04-21 12:58 | 19.95106 | 110.44820 | 78 ft | 10 kts | 354° |
| 2026-04-21 12:58 | 19.95176 | 110.44819 | 78 ft | 9 kts | 0° |
| 2026-04-21 12:58 | 19.95245 | 110.44817 | 78 ft | 9 kts | 357° |
| 2026-04-21 12:58 | 19.95310 | 110.44826 | 78 ft | 9 kts | 27° |
| 2026-04-21 12:59 | 19.95353 | 110.44868 | 78 ft | 7 kts | 50° |
| 2026-04-21 12:59 | 19.95371 | 110.44915 | 78 ft | 6 kts | 88° |
| 2026-04-21 12:59 | 19.95371 | 110.44923 | 78 ft | 0 kts | 91° |
| 2026-04-21 13:00 | 19.95371 | 110.44926 | 79 ft | 2 kts | 95° |
| 2026-04-21 13:00 | 19.95374 | 110.44955 | 87 ft | 3 kts | 103° |
| 2026-04-21 13:00 | 19.95378 | 110.44966 | 200 ft | 8 kts | 102° |
| 2026-04-21 13:01 | 19.95378 | 110.45100 | 407 ft | 37 kts | 102° |
| 2026-04-21 13:01 | 19.95426 | 110.45490 | 695 ft | 56 kts | 89° |
| 2026-04-21 13:01 | 19.95437 | 110.45808 | 870 ft | 40 kts | 101° |
| 2026-04-21 13:01 | 19.95412 | 110.46138 | 1061 ft | 51 kts | 101° |
| 2026-04-21 13:02 | 19.95396 | 110.46527 | 1260 ft | 53 kts | 92° |
| 2026-04-21 13:02 | 19.95415 | 110.46928 | 1442 ft | 61 kts | 92° |
| 2026-04-21 13:02 | 19.95513 | 110.47918 | 1836 ft | 68 kts | 94° |
| 2026-04-21 13:03 | 19.95585 | 110.48416 | 2026 ft | 68 kts | 93° |
| 2026-04-21 13:03 | 19.95664 | 110.48923 | 2217 ft | 70 kts | 93° |
| 2026-04-21 13:03 | 19.95754 | 110.49434 | 2406 ft | 72 kts | 92° |
| 2026-04-21 13:03 | 19.95841 | 110.49960 | 2600 ft | 72 kts | 92° |
| 2026-04-21 13:04 | 19.95931 | 110.50492 | 2792 ft | 73 kts | 93° |
| 2026-04-21 13:04 | 19.96092 | 110.51014 | 2918 ft | 81 kts | 63° |
| 2026-04-21 13:04 | 19.96620 | 110.51296 | 2971 ft | 89 kts | 8° |
| 2026-04-21 13:04 | 19.97256 | 110.51346 | 2994 ft | 91 kts | 6° |
| 2026-04-21 13:05 | 19.97898 | 110.51380 | 3006 ft | 92 kts | 5° |
| 2026-04-21 13:05 | 19.98542 | 110.51417 | 3011 ft | 91 kts | 5° |
| 2026-04-21 13:05 | 19.99179 | 110.51457 | 3012 ft | 91 kts | 6° |
| 2026-04-21 13:05 | 19.99808 | 110.51498 | 3012 ft | 92 kts | 6° |
| 2026-04-21 13:06 | 20.00460 | 110.51540 | 3012 ft | 94 kts | 359° |
| 2026-04-21 13:06 | 20.01022 | 110.51241 | 3014 ft | 86 kts | 297° |
| 2026-04-21 13:06 | 20.01229 | 110.50687 | 3014 ft | 80 kts | 274° |
| 2026-04-21 13:06 | 20.01371 | 110.50114 | 3014 ft | 80 kts | 272° |
| 2026-04-21 13:07 | 20.01515 | 110.49517 | 3005 ft | 88 kts | 272° |
| 2026-04-21 13:07 | 20.01649 | 110.48813 | 2997 ft | 105 kts | 264° |
| 2026-04-21 13:07 | 20.01562 | 110.47983 | 2998 ft | 123 kts | 252° |
| 2026-04-21 13:07 | 20.01448 | 110.47021 | 3014 ft | 133 kts | 257° |
| 2026-04-21 13:08 | 20.01362 | 110.46042 | 3019 ft | 133 kts | 257° |
| 2026-04-21 13:08 | 20.01272 | 110.45057 | 3015 ft | 132 kts | 257° |
| 2026-04-21 13:08 | 20.01187 | 110.44093 | 3014 ft | 133 kts | 258° |
| 2026-04-21 13:08 | 20.01096 | 110.43113 | 3014 ft | 133 kts | 258° |
| 2026-04-21 13:09 | 20.01006 | 110.42130 | 3014 ft | 133 kts | 258° |
| 2026-04-21 13:09 | 20.00914 | 110.41150 | 3014 ft | 133 kts | 258° |
| 2026-04-21 13:09 | 20.00827 | 110.40156 | 2995 ft | 138 kts | 261° |
| 2026-04-21 13:09 | 20.00716 | 110.39060 | 3003 ft | 155 kts | 259° |
| 2026-04-21 13:10 | 20.00611 | 110.37890 | 3010 ft | 163 kts | 259° |
| 2026-04-21 13:10 | 20.00501 | 110.36680 | 3009 ft | 168 kts | 259° |
| 2026-04-21 13:10 | 20.00384 | 110.35414 | 3012 ft | 173 kts | 259° |
| 2026-04-21 13:10 | 20.00270 | 110.34143 | 3015 ft | 173 kts | 259° |
| 2026-04-21 13:11 | 20.00155 | 110.32870 | 3015 ft | 173 kts | 259° |
| 2026-04-21 13:11 | 20.00040 | 110.31587 | 3015 ft | 173 kts | 259° |
| 2026-04-21 13:11 | 19.99920 | 110.30322 | 3013 ft | 173 kts | 259° |
| 2026-04-21 13:11 | 19.99804 | 110.29028 | 3014 ft | 174 kts | 259° |
| 2026-04-21 13:12 | 19.99689 | 110.27762 | 3015 ft | 173 kts | 259° |
| 2026-04-21 13:12 | 19.99573 | 110.26479 | 3139 ft | 172 kts | 260° |
| 2026-04-21 13:12 | 19.99452 | 110.25207 | 3294 ft | 172 kts | 260° |
| 2026-04-21 13:12 | 19.99332 | 110.23955 | 3468 ft | 171 kts | 261° |
| 2026-04-21 13:13 | 19.99217 | 110.22706 | 3638 ft | 170 kts | 261° |
| 2026-04-21 13:13 | 19.99099 | 110.21459 | 3810 ft | 169 kts | 261° |
| 2026-04-21 13:13 | 19.98985 | 110.20216 | 3985 ft | 169 kts | 261° |
| 2026-04-21 13:13 | 19.98869 | 110.18977 | 4164 ft | 168 kts | 261° |
| 2026-04-21 13:14 | 19.98755 | 110.17734 | 4339 ft | 167 kts | 261° |
| 2026-04-21 13:14 | 19.98644 | 110.16510 | 4513 ft | 166 kts | 261° |
| 2026-04-21 13:14 | 19.98531 | 110.15295 | 4689 ft | 165 kts | 261° |
| 2026-04-21 13:14 | 19.98416 | 110.14078 | 4862 ft | 165 kts | 261° |
| 2026-04-21 13:15 | 19.98267 | 110.12875 | 5027 ft | 163 kts | 257° |
| 2026-04-21 13:15 | 19.98057 | 110.11684 | 5193 ft | 162 kts | 256° |
| 2026-04-21 13:15 | 19.97865 | 110.10513 | 5368 ft | 160 kts | 257° |
| 2026-04-21 13:15 | 19.97665 | 110.09342 | 5536 ft | 160 kts | 257° |
| 2026-04-21 13:16 | 19.97468 | 110.08169 | 5704 ft | 159 kts | 258° |
| 2026-04-21 13:16 | 19.97280 | 110.07016 | 5880 ft | 158 kts | 257° |
| 2026-04-21 13:16 | 19.97085 | 110.05868 | 6054 ft | 157 kts | 258° |
| 2026-04-21 13:16 | 19.96892 | 110.04731 | 6216 ft | 157 kts | 258° |
| 2026-04-21 13:17 | 19.96703 | 110.03595 | 6387 ft | 156 kts | 258° |
| 2026-04-21 13:17 | 19.96512 | 110.02457 | 6551 ft | 156 kts | 258° |
| 2026-04-21 13:17 | 19.96323 | 110.01323 | 6667 ft | 155 kts | 258° |
| 2026-04-21 13:17 | 19.96138 | 110.00204 | 6817 ft | 155 kts | 258° |
| 2026-04-21 13:18 | 19.95940 | 109.99054 | 6833 ft | 157 kts | 258° |
| 2026-04-21 13:18 | 19.95763 | 109.97976 | 7051 ft | 142 kts | 257° |
| 2026-04-21 13:18 | 19.95603 | 109.96976 | 7036 ft | 133 kts | 256° |
| 2026-04-21 13:18 | 19.95444 | 109.96025 | 6970 ft | 130 kts | 257° |
| 2026-04-21 13:19 | 19.95284 | 109.95068 | 6939 ft | 130 kts | 258° |
| 2026-04-21 13:19 | 19.95122 | 109.94116 | 6926 ft | 131 kts | 257° |
| 2026-04-21 13:19 | 19.94961 | 109.93160 | 6922 ft | 131 kts | 258° |
| 2026-04-21 13:19 | 19.94801 | 109.92208 | 6896 ft | 131 kts | 257° |
| 2026-04-21 13:20 | 19.94647 | 109.91264 | 6896 ft | 130 kts | 258° |
| 2026-04-21 13:20 | 19.94485 | 109.90308 | 6900 ft | 130 kts | 258° |
| 2026-04-21 13:20 | 19.94327 | 109.89356 | 6902 ft | 131 kts | 257° |
| 2026-04-21 13:20 | 19.94165 | 109.88379 | 6878 ft | 140 kts | 259° |
| 2026-04-21 13:21 | 19.93974 | 109.87301 | 6870 ft | 156 kts | 257° |
| 2026-04-21 13:21 | 19.93779 | 109.86129 | 6883 ft | 163 kts | 258° |
| 2026-04-21 13:21 | 19.93575 | 109.84920 | 6871 ft | 169 kts | 258° |
| 2026-04-21 13:21 | 19.93370 | 109.83690 | 6874 ft | 171 kts | 258° |
| 2026-04-21 13:22 | 19.93161 | 109.82450 | 6896 ft | 170 kts | 258° |
| 2026-04-21 13:22 | 19.92953 | 109.81195 | 6898 ft | 171 kts | 258° |
| 2026-04-21 13:22 | 19.92738 | 109.79943 | 6893 ft | 172 kts | 258° |
| 2026-04-21 13:22 | 19.92302 | 109.78793 | 6923 ft | 170 kts | 229° |
| 2026-04-21 13:23 | 19.91561 | 109.77854 | 7083 ft | 163 kts | 238° |
| 2026-04-21 13:23 | 19.90997 | 109.76831 | 7212 ft | 161 kts | 237° |
| 2026-04-21 13:23 | 19.90373 | 109.75837 | 7349 ft | 159 kts | 236° |
| 2026-04-21 13:23 | 19.89782 | 109.74851 | 7498 ft | 158 kts | 237° |
| 2026-04-21 13:24 | 19.89185 | 109.73875 | 7644 ft | 157 kts | 236° |
| 2026-04-21 13:24 | 19.88591 | 109.72898 | 7776 ft | 154 kts | 238° |
| 2026-04-21 13:24 | 19.88001 | 109.71925 | 7834 ft | 159 kts | 236° |
| 2026-04-21 13:24 | 19.87382 | 109.70917 | 7872 ft | 163 kts | 236° |
| 2026-04-21 13:25 | 19.86766 | 109.69900 | 7892 ft | 164 kts | 236° |
| 2026-04-21 13:25 | 19.86148 | 109.68888 | 7900 ft | 164 kts | 237° |
| 2026-04-21 13:25 | 19.85530 | 109.67873 | 7910 ft | 163 kts | 236° |
| 2026-04-21 13:25 | 19.84914 | 109.66859 | 7914 ft | 163 kts | 237° |
| 2026-04-21 13:26 | 19.84293 | 109.65843 | 7914 ft | 164 kts | 237° |
| 2026-04-21 13:26 | 19.83673 | 109.64825 | 7918 ft | 164 kts | 237° |
| 2026-04-21 13:26 | 19.83045 | 109.63796 | 7915 ft | 164 kts | 237° |
| 2026-04-21 13:26 | 19.82427 | 109.62781 | 7915 ft | 164 kts | 237° |
| 2026-04-21 13:27 | 19.81809 | 109.61763 | 7918 ft | 164 kts | 237° |
| 2026-04-21 13:27 | 19.81191 | 109.60748 | 7919 ft | 164 kts | 237° |
| 2026-04-21 13:27 | 19.80567 | 109.59726 | 7920 ft | 165 kts | 236° |
| 2026-04-21 13:27 | 19.79949 | 109.58710 | 7920 ft | 164 kts | 236° |
| 2026-04-21 13:28 | 19.79327 | 109.57690 | 7919 ft | 163 kts | 236° |
| 2026-04-21 13:28 | 19.78707 | 109.56674 | 7916 ft | 164 kts | 237° |
| 2026-04-21 13:28 | 19.78091 | 109.55666 | 7911 ft | 164 kts | 237° |
| 2026-04-21 13:28 | 19.77463 | 109.54639 | 7912 ft | 165 kts | 237° |
| 2026-04-21 13:29 | 19.76839 | 109.53616 | 7918 ft | 164 kts | 237° |
| 2026-04-21 13:29 | 19.76219 | 109.52602 | 7917 ft | 164 kts | 237° |
| 2026-04-21 13:29 | 19.75595 | 109.51582 | 7918 ft | 163 kts | 237° |
| 2026-04-21 13:29 | 19.74980 | 109.50575 | 7917 ft | 162 kts | 237° |
| 2026-04-21 13:30 | 19.74366 | 109.49571 | 7915 ft | 162 kts | 237° |
| 2026-04-21 13:30 | 19.73749 | 109.48560 | 7914 ft | 163 kts | 237° |
| 2026-04-21 13:30 | 19.73126 | 109.47539 | 7915 ft | 164 kts | 237° |
| 2026-04-21 13:30 | 19.72501 | 109.46515 | 7919 ft | 164 kts | 237° |
| 2026-04-21 13:31 | 19.71880 | 109.45498 | 7923 ft | 164 kts | 237° |
| 2026-04-21 13:31 | 19.71261 | 109.44482 | 7924 ft | 163 kts | 237° |
| 2026-04-21 13:31 | 19.70646 | 109.43478 | 7918 ft | 162 kts | 236° |
| 2026-04-21 13:31 | 19.70030 | 109.42468 | 7912 ft | 162 kts | 236° |
| 2026-04-21 13:32 | 19.69407 | 109.41452 | 7912 ft | 162 kts | 237° |
| 2026-04-21 13:32 | 19.68794 | 109.40451 | 7912 ft | 162 kts | 237° |
| 2026-04-21 13:32 | 19.68170 | 109.39432 | 7913 ft | 164 kts | 237° |
| 2026-04-21 13:32 | 19.67548 | 109.38418 | 7917 ft | 164 kts | 237° |
| 2026-04-21 13:33 | 19.66930 | 109.37410 | 7924 ft | 163 kts | 237° |
| 2026-04-21 13:33 | 19.66310 | 109.36395 | 7926 ft | 163 kts | 237° |
| 2026-04-21 13:33 | 19.65691 | 109.35384 | 7935 ft | 163 kts | 237° |
| 2026-04-21 13:33 | 19.65072 | 109.34360 | 7937 ft | 163 kts | 238° |
| 2026-04-21 13:34 | 19.64464 | 109.33356 | 7934 ft | 163 kts | 236° |
| 2026-04-21 13:34 | 19.63838 | 109.32343 | 7928 ft | 163 kts | 237° |
| 2026-04-21 13:34 | 19.63221 | 109.31335 | 7929 ft | 163 kts | 237° |
| 2026-04-21 13:34 | 19.62596 | 109.30315 | 7930 ft | 164 kts | 237° |
| 2026-04-21 13:35 | 19.61979 | 109.29306 | 7932 ft | 163 kts | 237° |
| 2026-04-21 13:35 | 19.61365 | 109.28304 | 7931 ft | 163 kts | 236° |
| 2026-04-21 13:35 | 19.60744 | 109.27294 | 7931 ft | 163 kts | 237° |
| 2026-04-21 13:35 | 19.60121 | 109.26277 | 7932 ft | 163 kts | 236° |
| 2026-04-21 13:36 | 19.59499 | 109.25263 | 7930 ft | 163 kts | 237° |
| 2026-04-21 13:36 | 19.58883 | 109.24261 | 7932 ft | 163 kts | 237° |
| 2026-04-21 13:36 | 19.58258 | 109.23243 | 7937 ft | 163 kts | 237° |
| 2026-04-21 13:36 | 19.57640 | 109.22235 | 7935 ft | 163 kts | 237° |
| 2026-04-21 13:37 | 19.57018 | 109.21225 | 7933 ft | 162 kts | 237° |
| 2026-04-21 13:37 | 19.56405 | 109.20229 | 7927 ft | 162 kts | 237° |
| 2026-04-21 13:37 | 19.55785 | 109.19220 | 7919 ft | 162 kts | 237° |
| 2026-04-21 13:37 | 19.55173 | 109.18225 | 7924 ft | 161 kts | 237° |
| 2026-04-21 13:38 | 19.54555 | 109.17217 | 7927 ft | 162 kts | 237° |
| 2026-04-21 13:38 | 19.53944 | 109.16220 | 7930 ft | 162 kts | 237° |
| 2026-04-21 13:38 | 19.53328 | 109.15215 | 7932 ft | 163 kts | 237° |
| 2026-04-21 13:38 | 19.52707 | 109.14204 | 7928 ft | 163 kts | 237° |
| 2026-04-21 13:39 | 19.52080 | 109.13184 | 7926 ft | 163 kts | 237° |
| 2026-04-21 13:39 | 19.51462 | 109.12179 | 7923 ft | 163 kts | 237° |
| 2026-04-21 13:39 | 19.50849 | 109.11181 | 7918 ft | 163 kts | 237° |
| 2026-04-21 13:39 | 19.50225 | 109.10168 | 7919 ft | 162 kts | 237° |
| 2026-04-21 13:40 | 19.49614 | 109.09172 | 7920 ft | 162 kts | 237° |
| 2026-04-21 13:40 | 19.48993 | 109.08165 | 7919 ft | 162 kts | 237° |
| 2026-04-21 13:40 | 19.48304 | 109.07217 | 7922 ft | 162 kts | 226° |
| 2026-04-21 13:40 | 19.47442 | 109.06450 | 7927 ft | 163 kts | 220° |
| 2026-04-21 13:41 | 19.46579 | 109.05656 | 7930 ft | 162 kts | 223° |
| 2026-04-21 13:41 | 19.45731 | 109.04874 | 7930 ft | 162 kts | 221° |
| 2026-04-21 13:41 | 19.44861 | 109.04080 | 7931 ft | 163 kts | 222° |
| 2026-04-21 13:41 | 19.44003 | 109.03291 | 7930 ft | 163 kts | 222° |
| 2026-04-21 13:42 | 19.43142 | 109.02505 | 7934 ft | 163 kts | 222° |
| 2026-04-21 13:42 | 19.42280 | 109.01713 | 7936 ft | 163 kts | 222° |
| 2026-04-21 13:42 | 19.41418 | 109.00921 | 7935 ft | 164 kts | 222° |
| 2026-04-21 13:42 | 19.40557 | 109.00133 | 7941 ft | 163 kts | 222° |
| 2026-04-21 13:43 | 19.39702 | 108.99347 | 7937 ft | 162 kts | 222° |
| 2026-04-21 13:43 | 19.38847 | 108.98563 | 7935 ft | 163 kts | 222° |
| 2026-04-21 13:43 | 19.37985 | 108.97772 | 7936 ft | 163 kts | 221° |
| 2026-04-21 13:43 | 19.37127 | 108.96989 | 7937 ft | 163 kts | 222° |
| 2026-04-21 13:44 | 19.36271 | 108.96204 | 7934 ft | 162 kts | 222° |
| 2026-04-21 13:44 | 19.35419 | 108.95426 | 7934 ft | 161 kts | 222° |
| 2026-04-21 13:44 | 19.34567 | 108.94644 | 7935 ft | 161 kts | 222° |
| 2026-04-21 13:44 | 19.33716 | 108.93868 | 7937 ft | 161 kts | 222° |
| 2026-04-21 13:45 | 19.32864 | 108.93085 | 7937 ft | 162 kts | 222° |
| 2026-04-21 13:45 | 19.32005 | 108.92300 | 7932 ft | 163 kts | 222° |
| 2026-04-21 13:45 | 19.31148 | 108.91515 | 7931 ft | 163 kts | 222° |
| 2026-04-21 13:45 | 19.30291 | 108.90727 | 7924 ft | 163 kts | 222° |
| 2026-04-21 13:46 | 19.29426 | 108.89938 | 7926 ft | 163 kts | 222° |
| 2026-04-21 13:46 | 19.28565 | 108.89151 | 7927 ft | 163 kts | 222° |
| 2026-04-21 13:46 | 19.27709 | 108.88366 | 7929 ft | 163 kts | 222° |
| 2026-04-21 13:46 | 19.26849 | 108.87581 | 7933 ft | 163 kts | 222° |
| 2026-04-21 13:47 | 19.25974 | 108.86781 | 7932 ft | 163 kts | 222° |
| 2026-04-21 13:47 | 19.25119 | 108.85999 | 7928 ft | 163 kts | 222° |
| 2026-04-21 13:47 | 19.24246 | 108.85201 | 7919 ft | 164 kts | 222° |
| 2026-04-21 13:47 | 19.23375 | 108.84408 | 7911 ft | 164 kts | 222° |
| 2026-04-21 13:48 | 19.22518 | 108.83623 | 7911 ft | 163 kts | 222° |
| 2026-04-21 13:48 | 19.21653 | 108.82834 | 7911 ft | 163 kts | 222° |
| 2026-04-21 13:48 | 19.20789 | 108.82046 | 7911 ft | 163 kts | 223° |
| 2026-04-21 13:48 | 19.19939 | 108.81274 | 7918 ft | 162 kts | 223° |
| 2026-04-21 13:49 | 19.19087 | 108.80492 | 7921 ft | 161 kts | 223° |
| 2026-04-21 13:49 | 19.18232 | 108.79710 | 7923 ft | 162 kts | 222° |
| 2026-04-21 13:49 | 19.17377 | 108.78931 | 7928 ft | 163 kts | 222° |
| 2026-04-21 13:49 | 19.16512 | 108.78137 | 7927 ft | 164 kts | 222° |
| 2026-04-21 13:50 | 19.15645 | 108.77348 | 7930 ft | 163 kts | 222° |
| 2026-04-21 13:50 | 19.14789 | 108.76566 | 7932 ft | 163 kts | 222° |
| 2026-04-21 13:50 | 19.13929 | 108.75780 | 7932 ft | 163 kts | 222° |
| 2026-04-21 13:50 | 19.13063 | 108.74989 | 7932 ft | 164 kts | 222° |
| 2026-04-21 13:51 | 19.12201 | 108.74204 | 7934 ft | 163 kts | 222° |
| 2026-04-21 13:51 | 19.11340 | 108.73420 | 7935 ft | 163 kts | 222° |
| 2026-04-21 13:51 | 19.10438 | 108.72680 | 7919 ft | 166 kts | 210° |
| 2026-04-21 13:51 | 19.09276 | 108.72592 | 7935 ft | 173 kts | 168° |
| 2026-04-21 13:52 | 19.08114 | 108.72862 | 7930 ft | 168 kts | 178° |
| 2026-04-21 13:52 | 19.06942 | 108.72945 | 7926 ft | 169 kts | 178° |
| 2026-04-21 13:52 | 19.05768 | 108.73093 | 7922 ft | 169 kts | 177° |
| 2026-04-21 13:52 | 19.04601 | 108.73216 | 7925 ft | 169 kts | 178° |
| 2026-04-21 13:53 | 19.03084 | 108.73386 | 7927 ft | 169 kts | 178° |
| 2026-04-21 13:53 | 19.00695 | 108.73653 | 7937 ft | 170 kts | 177° |
| 2026-04-21 13:53 | 18.98346 | 108.73909 | 7945 ft | 170 kts | 177° |
| 2026-04-21 13:53 | 18.96021 | 108.74152 | 7902 ft | 170 kts | 178° |
| 2026-04-21 13:54 | 18.93626 | 108.74438 | 7959 ft | 170 kts | 179° |
| 2026-04-21 13:54 | 18.91286 | 108.74709 | 7958 ft | 169 kts | 175° |
| 2026-04-21 13:54 | 18.88902 | 108.74942 | 7950 ft | 170 kts | 177° |
| 2026-04-21 13:54 | 18.86540 | 108.75223 | 7963 ft | 170 kts | 178° |
| 2026-04-21 13:55 | 18.84205 | 108.75480 | 7965 ft | 169 kts | 176° |
| 2026-04-21 13:55 | 18.81877 | 108.75727 | 7966 ft | 168 kts | 177° |
| 2026-04-21 13:55 | 18.79512 | 108.75999 | 7964 ft | 169 kts | 178° |
| 2026-04-21 13:55 | 18.77176 | 108.76260 | 7976 ft | 169 kts | 177° |
| 2026-04-21 13:56 | 18.74801 | 108.76518 | 7979 ft | 169 kts | 177° |
| 2026-04-21 13:56 | 18.72452 | 108.76779 | 7975 ft | 169 kts | 177° |
| 2026-04-21 13:56 | 18.70099 | 108.77036 | 7971 ft | 170 kts | 177° |
| 2026-04-21 13:56 | 18.67713 | 108.77296 | 7970 ft | 171 kts | 178° |
| 2026-04-21 13:57 | 18.65375 | 108.77566 | 7970 ft | 170 kts | 178° |
| 2026-04-21 13:57 | 18.63013 | 108.77824 | 7966 ft | 169 kts | 177° |
| 2026-04-21 13:57 | 18.60624 | 108.78078 | 7956 ft | 169 kts | 177° |
| 2026-04-21 13:57 | 18.59448 | 108.78214 | 7957 ft | 170 kts | 177° |
| 2026-04-21 13:58 | 18.58278 | 108.78339 | 7956 ft | 170 kts | 177° |
| 2026-04-21 13:58 | 18.57107 | 108.78628 | 7946 ft | 177 kts | 154° |
| 2026-04-21 13:58 | 18.56335 | 108.79628 | 7962 ft | 181 kts | 112° |
| 2026-04-21 13:58 | 18.55749 | 108.80785 | 7955 ft | 177 kts | 130° |
| 2026-04-21 13:59 | 18.54994 | 108.81794 | 7952 ft | 177 kts | 128° |
| 2026-04-21 13:59 | 18.54299 | 108.82862 | 7954 ft | 177 kts | 128° |
| 2026-04-21 13:59 | 18.53575 | 108.83925 | 7954 ft | 177 kts | 128° |
| 2026-04-21 13:59 | 18.52867 | 108.84983 | 7955 ft | 177 kts | 128° |
| 2026-04-21 14:00 | 18.52157 | 108.86039 | 7954 ft | 178 kts | 128° |
| 2026-04-21 14:00 | 18.51434 | 108.87106 | 7955 ft | 178 kts | 128° |
| 2026-04-21 14:00 | 18.50715 | 108.88171 | 7955 ft | 178 kts | 128° |
| 2026-04-21 14:00 | 18.50003 | 108.89228 | 7954 ft | 178 kts | 127° |
| 2026-04-21 14:01 | 18.49274 | 108.90308 | 7953 ft | 177 kts | 128° |
| 2026-04-21 14:01 | 18.48569 | 108.91358 | 7955 ft | 177 kts | 128° |
| 2026-04-21 14:01 | 18.47853 | 108.92426 | 7956 ft | 177 kts | 128° |
| 2026-04-21 14:01 | 18.47135 | 108.93481 | 7960 ft | 177 kts | 128° |
| 2026-04-21 14:02 | 18.46425 | 108.94543 | 7963 ft | 176 kts | 128° |
| 2026-04-21 14:02 | 18.45709 | 108.95608 | 7965 ft | 177 kts | 128° |
| 2026-04-21 14:02 | 18.45002 | 108.96654 | 7966 ft | 177 kts | 128° |
| 2026-04-21 14:03 | 18.43570 | 108.98777 | 7969 ft | 177 kts | 128° |
| 2026-04-21 14:03 | 18.43540 | 108.98821 | 7969 ft | 177 kts | 127° |
| 2026-04-21 14:03 | 18.43371 | 108.99071 | 7969 ft | 177 kts | 128° |
| 2026-04-21 14:03 | 18.42648 | 109.00140 | 7968 ft | 177 kts | 127° |
| 2026-04-21 14:04 | 18.41935 | 109.01193 | 7969 ft | 177 kts | 128° |
| 2026-04-21 14:04 | 18.41228 | 109.02247 | 7972 ft | 177 kts | 128° |
| 2026-04-21 14:04 | 18.40504 | 109.03316 | 7974 ft | 177 kts | 128° |
| 2026-04-21 14:04 | 18.39787 | 109.04376 | 7976 ft | 177 kts | 127° |
| 2026-04-21 14:05 | 18.39077 | 109.05424 | 7980 ft | 176 kts | 128° |
| 2026-04-21 14:05 | 18.38363 | 109.06485 | 7978 ft | 176 kts | 128° |
| 2026-04-21 14:05 | 18.37657 | 109.07528 | 7980 ft | 176 kts | 128° |
| 2026-04-21 14:05 | 18.36937 | 109.08595 | 7885 ft | 177 kts | 127° |
| 2026-04-21 14:06 | 18.36230 | 109.09641 | 7702 ft | 176 kts | 127° |
| 2026-04-21 14:06 | 18.35523 | 109.10685 | 7513 ft | 175 kts | 127° |
| 2026-04-21 14:06 | 18.34817 | 109.11729 | 7320 ft | 174 kts | 128° |
| 2026-04-21 14:06 | 18.34150 | 109.12730 | 7168 ft | 156 kts | 127° |
| 2026-04-21 14:07 | 18.33566 | 109.13595 | 6969 ft | 136 kts | 128° |
| 2026-04-21 14:07 | 18.33039 | 109.14385 | 6764 ft | 127 kts | 129° |
| 2026-04-21 14:07 | 18.32539 | 109.15126 | 6592 ft | 121 kts | 129° |
| 2026-04-21 14:07 | 18.32064 | 109.15833 | 6400 ft | 115 kts | 129° |
| 2026-04-21 14:08 | 18.31602 | 109.16520 | 6203 ft | 115 kts | 130° |
| 2026-04-21 14:08 | 18.31177 | 109.17228 | 6007 ft | 116 kts | 116° |
| 2026-04-21 14:08 | 18.30997 | 109.18051 | 5812 ft | 117 kts | 95° |
| 2026-04-21 14:08 | 18.31003 | 109.18909 | 5620 ft | 113 kts | 92° |
| 2026-04-21 14:09 | 18.31004 | 109.19679 | 5434 ft | 99 kts | 95° |
| 2026-04-21 14:09 | 18.30994 | 109.20374 | 5235 ft | 92 kts | 97° |
| 2026-04-21 14:09 | 18.30978 | 109.21040 | 5041 ft | 90 kts | 97° |
| 2026-04-21 14:09 | 18.30969 | 109.21699 | 4850 ft | 90 kts | 97° |
| 2026-04-21 14:10 | 18.30960 | 109.22353 | 4658 ft | 89 kts | 98° |
| 2026-04-21 14:10 | 18.30950 | 109.22987 | 4492 ft | 83 kts | 98° |
| 2026-04-21 14:10 | 18.30952 | 109.23570 | 4225 ft | 77 kts | 98° |
| 2026-04-21 14:10 | 18.30949 | 109.24124 | 3943 ft | 76 kts | 101° |
| 2026-04-21 14:11 | 18.30835 | 109.24627 | 3715 ft | 69 kts | 116° |
| 2026-04-21 14:11 | 18.30696 | 109.25097 | 3523 ft | 66 kts | 118° |
| 2026-04-21 14:11 | 18.30562 | 109.25564 | 3340 ft | 66 kts | 118° |
| 2026-04-21 14:11 | 18.30439 | 109.26021 | 3212 ft | 64 kts | 112° |
| 2026-04-21 14:12 | 18.30365 | 109.26479 | 3142 ft | 64 kts | 109° |
| 2026-04-21 14:12 | 18.30292 | 109.26939 | 2962 ft | 63 kts | 110° |
| 2026-04-21 14:12 | 18.30226 | 109.27379 | 2724 ft | 61 kts | 110° |
| 2026-04-21 14:12 | 18.30158 | 109.27807 | 2475 ft | 59 kts | 113° |
| 2026-04-21 14:13 | 18.30073 | 109.28223 | 2283 ft | 58 kts | 115° |
| 2026-04-21 14:13 | 18.29988 | 109.28640 | 2091 ft | 58 kts | 114° |
| 2026-04-21 14:13 | 18.29894 | 109.29042 | 1966 ft | 55 kts | 114° |
| 2026-04-21 14:13 | 18.29803 | 109.29446 | 1880 ft | 60 kts | 118° |
| 2026-04-21 14:14 | 18.29680 | 109.29902 | 1801 ft | 68 kts | 115° |
| 2026-04-21 14:14 | 18.29540 | 109.30390 | 1716 ft | 69 kts | 114° |
| 2026-04-21 14:14 | 18.29401 | 109.30870 | 1628 ft | 69 kts | 115° |
| 2026-04-21 14:14 | 18.29256 | 109.31371 | 1535 ft | 77 kts | 116° |
| 2026-04-21 14:15 | 18.29085 | 109.31937 | 1446 ft | 83 kts | 114° |
| 2026-04-21 14:15 | 18.28914 | 109.32520 | 1351 ft | 83 kts | 109° |
| 2026-04-21 14:15 | 18.28925 | 109.33144 | 1249 ft | 90 kts | 79° |
| 2026-04-21 14:15 | 18.29283 | 109.33710 | 1140 ft | 91 kts | 76° |
| 2026-04-21 14:16 | 18.29469 | 109.34338 | 1028 ft | 89 kts | 86° |
| 2026-04-21 14:16 | 18.29540 | 109.34975 | 926 ft | 87 kts | 89° |
| 2026-04-21 14:16 | 18.29601 | 109.35603 | 825 ft | 86 kts | 86° |
| 2026-04-21 14:16 | 18.29688 | 109.36232 | 714 ft | 90 kts | 87° |
| 2026-04-21 14:17 | 18.29778 | 109.36897 | 602 ft | 90 kts | 88° |
| 2026-04-21 14:17 | 18.29837 | 109.37543 | 488 ft | 87 kts | 85° |
| 2026-04-21 14:17 | 18.29910 | 109.38166 | 378 ft | 86 kts | 87° |
| 2026-04-21 14:17 | 18.29995 | 109.38778 | 322 ft | 83 kts | 85° |
| 2026-04-21 14:18 | 18.30060 | 109.39391 | 192 ft | 82 kts | 88° |
| 2026-04-21 14:18 | 18.30133 | 109.39970 | 105 ft | 75 kts | 84° |
| 2026-04-21 14:18 | 18.30196 | 109.40455 | 83 ft | 54 kts | 90° |
| 2026-04-21 14:18 | 18.30224 | 109.40707 | 76 ft | 17 kts | 79° |
| 2026-04-21 14:19 | 18.30231 | 109.40775 | 77 ft | 6 kts | 88° |
| 2026-04-21 14:19 | 18.30243 | 109.40824 | 79 ft | 7 kts | 51° |
| 2026-04-21 14:19 | 18.30296 | 109.40848 | 80 ft | 10 kts | 2° |
| 2026-04-21 14:19 | 18.30345 | 109.40842 | 81 ft | 1 kts | 351° |
| 2026-04-21 14:20 | 18.30368 | 109.40839 | 82 ft | 4 kts | 352° |
| 2026-04-21 14:20 | 18.30370 | 109.40839 | 82 ft | 0 kts | 351° |
| 2026-04-21 14:20 | 18.30389 | 109.40836 | 83 ft | 4 kts | 352° |
| 2026-04-21 14:20 | 18.30426 | 109.40832 | 84 ft | 6 kts | 353° |
| 2026-04-21 14:21 | 18.30469 | 109.40817 | 85 ft | 7 kts | 316° |
| 2026-04-21 14:21 | 18.30475 | 109.40755 | 84 ft | 9 kts | 261° |
| 2026-04-21 14:21 | 18.30466 | 109.40683 | 83 ft | 10 kts | 262° |
| 2026-04-21 14:21 | 18.30456 | 109.40608 | 81 ft | 10 kts | 262° |
| 2026-04-21 14:22 | 18.30446 | 109.40528 | 79 ft | 11 kts | 262° |
| 2026-04-21 14:22 | 18.30437 | 109.40459 | 77 ft | 7 kts | 262° |
| 2026-04-21 14:22 | 18.30432 | 109.40427 | 76 ft | 2 kts | 261° |
| 2026-04-21 14:22 | 18.30432 | 109.40424 | 76 ft | 0 kts | 262° |
| 2026-04-21 14:23 | 18.30431 | 109.40414 | 76 ft | 4 kts | 261° |
| 2026-04-21 14:23 | 18.30426 | 109.40374 | 75 ft | 6 kts | 260° |
| 2026-04-21 14:23 | 18.30430 | 109.40331 | 75 ft | 5 kts | 321° |
| 2026-04-21 14:23 | 18.30450 | 109.40323 | 75 ft | 0 kts | 351° |
| 2026-04-21 14:24 | 18.30457 | 109.40322 | 75 ft | 1 kts | 352° |
| 2026-04-21 14:24 | 18.30463 | 109.40321 | 76 ft | 0 kts | 354° |
| 2026-04-21 14:24 | 18.30473 | 109.40320 | 76 ft | 2 kts | 351° |
| 2026-04-21 14:24 | 18.30486 | 109.40318 | 77 ft | 1 kts | 352° |
| 2026-04-21 14:25 | 18.30500 | 109.40316 | 77 ft | 2 kts | 352° |
| 2026-04-21 14:25 | 18.30503 | 109.40316 | 77 ft | 0 kts | 351° |